Urbana, Ohio
Current Conditions -  °F | °C
As of 1:30 PM on Thursday 29 Jan 2015 (Local Time) from KEDJ Reporting Station
Overcast Overcast  
Wind Chill: 29°   Ceiling: 2100
Heat Index: 37°   Visibility: 10mi
Dew Point: 34°   Wind: 13mph
Humidity: 87%   Direction: 210°SSW
Pressure: 29.75"   Gusts: NA
Location:  40.11°N, 83.75°W
Report Text: KEDJ 291830Z AUTO 21011KT 10SM OVC021 03/01 A2975 RMK AO1
Loading
Personal Weather Stations






























Interactive Weather Map New forecast layout! Learn more

10-Day Weather Forecast

Advertisements
Track Severe Weather on mobile